createdAt,value
2024-01-12T00:00:29.178Z,2.20
2024-01-12T00:02:56.304Z,2.10
2024-01-12T00:05:23.348Z,2.20
2024-01-12T00:07:50.369Z,2.20
2024-01-12T00:10:17.416Z,2.10
2024-01-12T00:12:45.243Z,2.20
2024-01-12T00:15:12.272Z,2.20
2024-01-12T00:17:39.388Z,2.20
2024-01-12T00:20:06.926Z,2.20
2024-01-12T00:22:34.157Z,2.20
2024-01-12T00:25:01.433Z,2.10
2024-01-12T00:27:28.714Z,2.20
2024-01-12T00:29:55.806Z,2.20
2024-01-12T00:32:23.245Z,2.10
2024-01-12T00:34:50.731Z,2.10
2024-01-12T00:37:17.714Z,2.20
2024-01-12T00:39:44.795Z,2.20
2024-01-12T00:42:11.962Z,2.20
2024-01-12T00:44:38.932Z,2.20
2024-01-12T00:47:05.937Z,2.20
2024-01-12T00:49:34.392Z,2.20
2024-01-12T00:52:01.510Z,2.30
2024-01-12T00:54:28.499Z,2.30
2024-01-12T00:56:56.555Z,2.30
2024-01-12T00:59:24.159Z,2.30
2024-01-12T01:01:53.213Z,2.50
2024-01-12T01:04:20.284Z,2.30
2024-01-12T01:06:48.084Z,2.50
2024-01-12T01:09:17.197Z,2.40
2024-01-12T01:11:44.177Z,2.40
2024-01-12T01:14:11.730Z,2.40
2024-01-12T01:16:38.739Z,2.30
2024-01-12T01:19:06.237Z,2.30
2024-01-12T01:21:33.245Z,2.40
2024-01-12T01:24:00.246Z,2.40
2024-01-12T01:26:28.632Z,2.40
2024-01-12T01:28:57.026Z,2.40
2024-01-12T01:31:24.003Z,2.40
2024-01-12T01:33:51.198Z,2.40
2024-01-12T01:36:18.180Z,2.60
2024-01-12T01:38:45.207Z,2.40
2024-01-12T01:41:12.189Z,2.40
2024-01-12T01:43:39.125Z,2.40
2024-01-12T01:46:06.050Z,2.40
2024-01-12T01:48:33.342Z,2.50
2024-01-12T01:51:00.545Z,2.70
2024-01-12T01:53:27.970Z,2.50
2024-01-12T01:55:54.998Z,2.50
2024-01-12T01:58:22.068Z,2.50
2024-01-12T02:00:51.326Z,2.60
2024-01-12T02:03:18.587Z,2.60
2024-01-12T02:05:52.611Z,2.60
2024-01-12T02:08:19.664Z,2.60
2024-01-12T02:10:47.744Z,2.50
2024-01-12T02:13:16.552Z,2.60
2024-01-12T02:15:43.519Z,2.60
2024-01-12T02:18:14.898Z,2.60
2024-01-12T02:20:43.012Z,2.70
2024-01-12T02:23:10.036Z,2.50
2024-01-12T02:25:40.039Z,2.60
2024-01-12T02:28:07.037Z,2.60
2024-01-12T02:30:35.031Z,2.60
2024-01-12T02:33:08.950Z,2.60
2024-01-12T02:35:36.152Z,2.60
2024-01-12T02:38:03.321Z,2.70
2024-01-12T02:40:30.277Z,2.60
2024-01-12T02:42:57.281Z,2.70
2024-01-12T02:45:24.543Z,2.60
2024-01-12T02:47:51.739Z,2.60
2024-01-12T02:50:18.763Z,2.60
2024-01-12T02:52:45.889Z,2.60
2024-01-12T02:55:12.868Z,2.50
2024-01-12T02:57:41.024Z,2.50
2024-01-12T03:00:08.728Z,2.50
2024-01-12T03:02:36.474Z,2.50
2024-01-12T03:05:03.630Z,2.50
2024-01-12T03:07:30.717Z,2.50
2024-01-12T03:09:57.749Z,2.50
2024-01-12T03:12:24.736Z,2.70
2024-01-12T03:14:51.775Z,2.70
2024-01-12T03:17:18.949Z,2.50
2024-01-12T03:19:45.960Z,2.50
2024-01-12T03:22:12.929Z,2.40
2024-01-12T03:24:40.275Z,2.40
2024-01-12T03:27:07.430Z,2.50
2024-01-12T03:29:34.528Z,2.40
2024-01-12T03:32:01.578Z,2.40
2024-01-12T03:34:28.855Z,2.50
2024-01-12T03:36:55.937Z,2.70
2024-01-12T03:39:23.076Z,2.50
2024-01-12T03:41:50.112Z,2.50
2024-01-12T03:44:18.895Z,2.60
2024-01-12T03:46:46.075Z,2.60
2024-01-12T03:49:13.114Z,2.60
2024-01-12T03:51:43.747Z,2.60
2024-01-12T03:54:11.688Z,2.60
2024-01-12T03:56:38.633Z,2.80
2024-01-12T03:59:05.627Z,2.80
2024-01-12T04:01:32.624Z,2.60
2024-01-12T04:04:00.600Z,2.60
2024-01-12T04:06:27.942Z,2.60
2024-01-12T04:08:55.612Z,2.80
2024-01-12T04:11:24.186Z,2.80
2024-01-12T04:13:51.386Z,2.60
2024-01-12T04:16:18.493Z,2.70
2024-01-12T04:18:45.906Z,2.60
2024-01-12T04:21:14.153Z,2.70
2024-01-12T04:23:41.374Z,2.70
2024-01-12T04:26:08.709Z,2.80
2024-01-12T04:28:35.771Z,2.80
2024-01-12T04:31:06.064Z,2.70
2024-01-12T04:33:34.293Z,2.60
2024-01-12T04:36:01.735Z,2.50
2024-01-12T04:38:29.148Z,2.70
2024-01-12T04:40:56.178Z,2.40
2024-01-12T04:43:24.231Z,2.40
2024-01-12T04:45:51.296Z,2.50
2024-01-12T04:48:18.526Z,2.60
2024-01-12T04:50:47.940Z,2.40
2024-01-12T04:53:16.455Z,2.40
2024-01-12T04:55:43.769Z,2.40
2024-01-12T04:58:10.784Z,2.30
2024-01-12T05:00:37.772Z,2.30
2024-01-12T05:03:05.307Z,2.60
2024-01-12T05:05:32.898Z,2.50
2024-01-12T05:07:59.942Z,2.50
2024-01-12T05:10:26.864Z,2.50
2024-01-12T05:12:53.781Z,2.50
2024-01-12T05:15:21.916Z,2.50
2024-01-12T05:17:49.112Z,2.60
2024-01-12T05:20:16.280Z,2.80
2024-01-12T05:22:43.453Z,2.60
2024-01-12T05:25:10.367Z,2.70
2024-01-12T05:27:37.364Z,2.80
2024-01-12T05:30:06.811Z,2.60
2024-01-12T05:32:35.509Z,2.70
2024-01-12T05:35:02.668Z,2.70
2024-01-12T05:37:30.297Z,2.70
2024-01-12T05:39:57.198Z,2.80
2024-01-12T05:42:24.196Z,2.70
2024-01-12T05:44:52.523Z,2.60
2024-01-12T05:47:20.528Z,2.40
2024-01-12T05:49:47.448Z,2.30
2024-01-12T05:52:14.429Z,2.30
2024-01-12T05:54:41.500Z,2.30
2024-01-12T05:57:08.535Z,2.40
2024-01-12T05:59:35.611Z,2.40
2024-01-12T06:02:05.268Z,2.40
2024-01-12T06:04:33.763Z,2.50
2024-01-12T06:07:00.687Z,2.60
2024-01-12T06:09:27.664Z,2.50
2024-01-12T06:11:54.970Z,2.60
2024-01-12T06:14:22.042Z,2.60
2024-01-12T06:16:49.072Z,2.60
2024-01-12T06:19:16.207Z,2.60
2024-01-12T06:21:43.269Z,2.60
2024-01-12T06:24:10.502Z,2.60
2024-01-12T06:26:37.728Z,2.50
2024-01-12T06:29:04.822Z,2.60
2024-01-12T06:31:35.450Z,2.50
2024-01-12T06:34:12.742Z,2.60
2024-01-12T06:36:46.204Z,2.60
2024-01-12T06:39:13.423Z,2.60
2024-01-12T06:41:48.181Z,2.40
2024-01-12T06:44:15.930Z,2.30
2024-01-12T06:46:44.858Z,2.20
2024-01-12T06:49:13.192Z,2.20
2024-01-12T06:51:40.518Z,2.20
2024-01-12T06:54:08.101Z,2.20
2024-01-12T06:56:39.290Z,2.20
2024-01-12T06:59:09.580Z,2.20
2024-01-12T07:01:36.752Z,2.30
2024-01-12T07:04:04.391Z,2.30
2024-01-12T07:06:31.724Z,2.30
2024-01-12T07:08:58.845Z,2.30
2024-01-12T07:11:27.177Z,2.30
2024-01-12T07:13:54.764Z,2.30
2024-01-12T07:16:22.328Z,2.20
2024-01-12T07:18:49.608Z,2.20
2024-01-12T07:21:17.858Z,2.20
2024-01-12T07:23:45.879Z,2.20
2024-01-12T07:26:14.237Z,2.30
2024-01-12T07:28:41.291Z,2.30
2024-01-12T07:31:08.389Z,2.30
2024-01-12T07:33:35.657Z,2.40
2024-01-12T07:36:02.860Z,2.50
2024-01-12T07:38:30.288Z,2.60
2024-01-12T07:40:57.389Z,2.50
2024-01-12T07:43:24.792Z,2.60
2024-01-12T07:45:51.780Z,2.70
2024-01-12T07:48:18.824Z,2.70
2024-01-12T07:50:46.369Z,2.70
2024-01-12T07:53:13.791Z,2.60
2024-01-12T07:55:41.764Z,2.60
2024-01-12T07:58:09.096Z,2.70
2024-01-12T08:00:38.904Z,2.60
2024-01-12T08:03:06.094Z,2.70
2024-01-12T08:05:34.585Z,2.90
2024-01-12T08:08:02.302Z,2.80
2024-01-12T08:10:29.242Z,3.00
2024-01-12T08:12:56.723Z,2.80
2024-01-12T08:15:24.163Z,2.90
2024-01-12T08:17:51.326Z,2.70
2024-01-12T08:20:18.490Z,2.90
2024-01-12T08:22:45.548Z,2.80
2024-01-12T08:25:12.544Z,2.80
2024-01-12T08:27:39.517Z,2.80
2024-01-12T08:30:08.902Z,2.80
2024-01-12T08:32:36.644Z,2.80
2024-01-12T08:35:05.175Z,2.80
2024-01-12T08:37:32.561Z,2.80
2024-01-12T08:40:00.128Z,2.80
2024-01-12T08:42:27.319Z,2.80
2024-01-12T08:44:54.379Z,2.90
2024-01-12T08:47:21.457Z,2.80
2024-01-12T08:49:48.954Z,2.90
2024-01-12T08:52:16.054Z,2.90
2024-01-12T08:54:44.719Z,2.90
2024-01-12T08:57:11.821Z,3.00
2024-01-12T08:59:40.152Z,3.00
2024-01-12T09:02:07.559Z,3.20
2024-01-12T09:04:36.147Z,3.20
2024-01-12T09:07:04.036Z,3.10
2024-01-12T09:09:31.086Z,3.10
2024-01-12T09:11:58.125Z,3.00
2024-01-12T09:14:25.657Z,3.20
2024-01-12T09:16:53.197Z,3.10
2024-01-12T09:19:20.395Z,3.10
2024-01-12T09:21:47.581Z,3.20
2024-01-12T09:24:14.905Z,3.20
2024-01-12T09:26:42.268Z,3.00
2024-01-12T09:29:09.801Z,2.90
2024-01-12T09:31:36.881Z,2.90
2024-01-12T09:34:04.241Z,3.00
2024-01-12T09:36:31.393Z,2.90
2024-01-12T09:38:59.836Z,3.10
2024-01-12T09:41:43.668Z,3.20
2024-01-12T09:44:13.068Z,3.10
2024-01-12T09:47:07.819Z,3.30
2024-01-12T09:49:35.688Z,3.20
2024-01-12T09:52:08.957Z,3.30
2024-01-12T09:54:36.705Z,3.30
2024-01-12T09:57:08.031Z,3.20
2024-01-12T09:59:38.228Z,3.20
2024-01-12T10:02:10.429Z,3.20
2024-01-12T10:04:37.380Z,3.10
2024-01-12T10:07:04.903Z,3.10
2024-01-12T10:09:31.933Z,3.10
2024-01-12T10:11:59.109Z,3.30
2024-01-12T10:14:27.039Z,3.30
2024-01-12T10:16:57.775Z,3.30
2024-01-12T10:19:26.194Z,3.40
2024-01-12T10:21:53.631Z,3.30
2024-01-12T10:24:24.170Z,3.30
2024-01-12T10:26:54.132Z,3.30
2024-01-12T10:29:21.507Z,3.50
2024-01-12T10:31:49.428Z,3.60
2024-01-12T10:34:17.918Z,3.50
2024-01-12T10:36:51.025Z,3.40
2024-01-12T10:39:20.608Z,3.40
2024-01-12T10:41:48.151Z,3.40
2024-01-12T10:44:16.966Z,3.30
2024-01-12T10:46:49.722Z,3.50
2024-01-12T10:49:28.260Z,3.60
2024-01-12T10:52:00.016Z,3.50
2024-01-12T10:54:47.800Z,3.60
2024-01-12T10:57:15.791Z,3.80
2024-01-12T10:59:45.583Z,4.10
2024-01-12T11:02:14.877Z,4.20
2024-01-12T11:04:45.528Z,4.40
2024-01-12T11:07:15.759Z,4.60
2024-01-12T11:09:42.990Z,4.70
2024-01-12T11:12:12.436Z,4.80
2024-01-12T11:14:41.713Z,5.00
2024-01-12T11:17:09.122Z,5.10
2024-01-12T11:19:36.538Z,5.20
2024-01-12T11:22:13.306Z,5.30
2024-01-12T11:24:45.977Z,5.20
2024-01-12T11:27:14.403Z,5.40
2024-01-12T11:29:45.129Z,5.40
2024-01-12T11:32:16.874Z,5.50
2024-01-12T11:34:44.196Z,5.50
2024-01-12T11:37:11.744Z,5.50
2024-01-12T11:39:39.374Z,5.60
2024-01-12T11:42:07.008Z,5.70
2024-01-12T11:44:35.362Z,5.80
2024-01-12T11:47:06.293Z,5.70
2024-01-12T11:49:33.425Z,5.60
2024-01-12T11:52:08.438Z,5.50
2024-01-12T11:54:35.666Z,5.60
2024-01-12T11:57:07.410Z,5.60
2024-01-12T11:59:36.490Z,5.60
2024-01-12T12:02:05.737Z,5.60
2024-01-12T12:04:33.188Z,5.50
2024-01-12T12:07:00.351Z,5.50
2024-01-12T12:09:28.065Z,5.40
2024-01-12T12:11:55.445Z,5.40
2024-01-12T12:14:23.709Z,5.50
2024-01-12T12:16:50.755Z,5.50
2024-01-12T12:19:17.981Z,5.60
2024-01-12T12:21:45.558Z,5.50
2024-01-12T12:24:13.801Z,5.50
2024-01-12T12:26:43.678Z,5.50
2024-01-12T12:29:12.037Z,5.50
2024-01-12T12:31:42.426Z,5.50
2024-01-12T12:34:10.094Z,5.60
2024-01-12T12:36:37.969Z,5.60
2024-01-12T12:39:05.616Z,5.70
2024-01-12T12:41:33.148Z,5.70
2024-01-12T12:44:02.848Z,5.70
2024-01-12T12:46:30.319Z,5.70
2024-01-12T12:48:57.942Z,5.60
2024-01-12T12:51:25.608Z,5.60
2024-01-12T12:53:52.653Z,5.60
2024-01-12T12:56:19.745Z,5.70
2024-01-12T12:58:46.774Z,5.60
2024-01-12T13:01:15.793Z,5.70
2024-01-12T13:03:42.755Z,5.50
2024-01-12T13:06:09.920Z,5.60
2024-01-12T13:08:37.753Z,5.50
2024-01-12T13:11:06.040Z,5.60
2024-01-12T13:13:35.183Z,5.60
2024-01-12T13:16:06.448Z,5.70
2024-01-12T13:18:33.819Z,5.70
2024-01-12T13:21:01.154Z,5.70
2024-01-12T13:23:28.251Z,5.70
2024-01-12T13:25:55.255Z,5.70
2024-01-12T13:28:22.296Z,5.60
2024-01-12T13:30:49.270Z,5.60
2024-01-12T13:33:16.615Z,5.40
2024-01-12T13:35:43.728Z,5.30
2024-01-12T13:38:10.867Z,5.40
2024-01-12T13:40:39.481Z,5.40
2024-01-12T13:43:06.520Z,5.40
2024-01-12T13:45:37.221Z,5.30
2024-01-12T13:48:07.370Z,5.30
2024-01-12T13:50:35.736Z,5.30
2024-01-12T13:53:04.745Z,5.10
2024-01-12T13:55:32.063Z,5.10
2024-01-12T13:57:59.264Z,5.10
2024-01-12T14:00:26.369Z,5.00
2024-01-12T14:02:53.931Z,4.90
2024-01-12T14:05:21.077Z,4.90
2024-01-12T14:07:48.178Z,5.00
2024-01-12T14:10:15.365Z,4.80
2024-01-12T14:12:42.452Z,4.60
2024-01-12T14:15:11.030Z,4.60
2024-01-12T14:17:38.307Z,4.60
2024-01-12T14:20:06.118Z,4.50
2024-01-12T14:22:33.190Z,4.50
2024-01-12T14:25:00.316Z,4.50
2024-01-12T14:27:27.816Z,4.10
2024-01-12T14:29:55.860Z,4.00
2024-01-12T14:32:23.574Z,3.80
2024-01-12T14:34:51.780Z,4.00
2024-01-12T14:37:19.009Z,4.10
2024-01-12T14:39:48.052Z,4.00
2024-01-12T14:42:17.228Z,3.80
2024-01-12T14:44:44.303Z,3.80
2024-01-12T14:47:14.958Z,3.90
2024-01-12T14:49:42.620Z,4.20
2024-01-12T14:52:09.653Z,4.20
2024-01-12T14:54:37.754Z,4.40
2024-01-12T14:57:05.268Z,4.20
2024-01-12T14:59:32.386Z,4.20
2024-01-12T15:01:59.574Z,4.20
2024-01-12T15:04:27.369Z,4.20
2024-01-12T15:06:54.380Z,4.30
2024-01-12T15:09:21.462Z,4.10
2024-01-12T15:11:48.988Z,4.10
2024-01-12T15:14:20.935Z,4.00
2024-01-12T15:16:53.200Z,4.00
2024-01-12T15:19:20.936Z,4.20
2024-01-12T15:21:48.098Z,4.20
2024-01-12T15:24:15.546Z,4.30
2024-01-12T15:26:42.648Z,4.10
2024-01-12T15:29:09.684Z,4.00
2024-01-12T15:31:36.718Z,4.00
2024-01-12T15:34:04.793Z,3.90
2024-01-12T15:36:33.816Z,3.90
2024-01-12T15:39:02.700Z,3.70
2024-01-12T15:41:29.847Z,3.20
2024-01-12T15:43:56.987Z,2.90
2024-01-12T15:46:24.238Z,2.60
2024-01-12T15:48:51.334Z,2.90
2024-01-12T15:51:20.114Z,2.70
2024-01-12T15:53:47.166Z,3.00
2024-01-12T15:56:14.156Z,3.40
2024-01-12T15:58:41.281Z,3.40
2024-01-12T16:01:08.157Z,3.20
2024-01-12T16:03:35.298Z,3.10
2024-01-12T16:06:08.921Z,2.80
2024-01-12T16:09:01.246Z,2.80
2024-01-12T16:11:28.984Z,3.20
2024-01-12T16:13:56.197Z,3.20
2024-01-12T16:16:23.536Z,3.40
2024-01-12T16:19:04.165Z,3.50
2024-01-12T16:21:39.915Z,3.60
2024-01-12T16:24:07.150Z,3.30
2024-01-12T16:26:39.553Z,3.10
2024-01-12T16:29:09.109Z,2.80
2024-01-12T16:31:36.247Z,3.30
2024-01-12T16:34:03.560Z,3.00
2024-01-12T16:36:31.286Z,2.90
2024-01-12T16:38:58.346Z,3.10
2024-01-12T16:41:27.105Z,3.20
2024-01-12T16:43:54.071Z,3.30
2024-01-12T16:46:21.878Z,3.00
2024-01-12T16:48:55.146Z,3.30
2024-01-12T16:51:22.354Z,3.50
2024-01-12T16:53:49.964Z,3.20
2024-01-12T16:56:17.608Z,2.90
2024-01-12T16:58:44.833Z,2.70
2024-01-12T17:01:11.816Z,3.00
2024-01-12T17:03:39.428Z,3.10
2024-01-12T17:06:08.226Z,3.00
2024-01-12T17:08:38.526Z,3.20
2024-01-12T17:11:08.681Z,3.40
2024-01-12T17:13:36.788Z,3.50
2024-01-12T17:16:04.424Z,3.30
2024-01-12T17:18:34.498Z,2.90
2024-01-12T17:21:02.425Z,3.10
2024-01-12T17:23:30.020Z,3.10
2024-01-12T17:25:57.176Z,3.20
2024-01-12T17:28:25.161Z,3.20
2024-01-12T17:30:52.444Z,2.70
2024-01-12T17:33:19.810Z,2.80
2024-01-12T17:35:47.727Z,2.90
2024-01-12T17:38:14.946Z,3.00
2024-01-12T17:40:42.225Z,3.00
2024-01-12T17:43:09.250Z,3.10
2024-01-12T17:45:36.313Z,3.20
2024-01-12T17:48:05.463Z,2.70
2024-01-12T17:50:35.156Z,2.50
2024-01-12T17:53:02.823Z,2.70
2024-01-12T17:55:29.893Z,3.20
2024-01-12T17:57:59.541Z,3.20
2024-01-12T18:00:27.251Z,3.30
2024-01-12T18:02:54.423Z,3.50
2024-01-12T18:05:22.122Z,3.20
2024-01-12T18:07:49.387Z,2.90
2024-01-12T18:10:16.994Z,3.10
2024-01-12T18:12:45.338Z,3.00
2024-01-12T18:15:12.749Z,2.70
2024-01-12T18:17:40.799Z,2.90
2024-01-12T18:20:09.215Z,2.90
2024-01-12T18:22:38.522Z,2.90
2024-01-12T18:25:06.018Z,2.90
2024-01-12T18:27:34.394Z,2.70
2024-01-12T18:30:01.635Z,2.90
2024-01-12T18:32:29.010Z,2.80
2024-01-12T18:34:56.109Z,2.50
2024-01-12T18:37:23.251Z,2.50
2024-01-12T18:39:50.360Z,2.50
2024-01-12T18:42:17.617Z,2.90
2024-01-12T18:44:46.522Z,3.00
2024-01-12T18:47:13.566Z,2.80
2024-01-12T18:49:41.034Z,2.50
2024-01-12T18:52:08.046Z,2.50
2024-01-12T18:54:35.229Z,2.50
2024-01-12T18:57:03.206Z,2.80
2024-01-12T18:59:30.476Z,3.00
2024-01-12T19:01:57.595Z,3.30
2024-01-12T19:04:25.187Z,3.20
2024-01-12T19:06:53.341Z,3.60
2024-01-12T19:09:20.634Z,3.60
2024-01-12T19:11:47.799Z,3.40
2024-01-12T19:14:14.835Z,3.10
2024-01-12T19:16:44.951Z,3.00
2024-01-12T19:19:12.521Z,3.20
2024-01-12T19:21:40.171Z,3.20
2024-01-12T19:24:07.307Z,3.20
2024-01-12T19:26:34.453Z,3.30
2024-01-12T19:29:02.230Z,3.30
2024-01-12T19:31:29.375Z,3.20
2024-01-12T19:33:57.918Z,3.20
2024-01-12T19:36:25.113Z,3.10
2024-01-12T19:38:52.531Z,3.10
2024-01-12T19:41:28.130Z,3.10
2024-01-12T19:43:55.392Z,3.30
2024-01-12T19:46:25.020Z,3.50
2024-01-12T19:48:55.153Z,3.30
2024-01-12T19:51:24.996Z,3.60
2024-01-12T19:53:52.084Z,3.50
2024-01-12T19:56:20.546Z,3.60
2024-01-12T19:58:52.039Z,3.70
2024-01-12T20:01:19.326Z,3.40
2024-01-12T20:03:48.134Z,2.90
2024-01-12T20:06:25.650Z,2.80
2024-01-12T20:08:56.301Z,2.90
2024-01-12T20:11:23.996Z,3.00
2024-01-12T20:13:51.116Z,3.10
2024-01-12T20:16:19.020Z,3.20
2024-01-12T20:18:51.573Z,3.40
2024-01-12T20:21:19.204Z,3.50
2024-01-12T20:23:46.415Z,3.10
2024-01-12T20:26:13.611Z,3.10
2024-01-12T20:28:40.982Z,2.70
2024-01-12T20:31:08.053Z,2.70
2024-01-12T20:33:40.279Z,2.60
2024-01-12T20:36:08.970Z,2.70
2024-01-12T20:38:36.759Z,2.90
2024-01-12T20:41:04.239Z,3.00
2024-01-12T20:43:32.697Z,3.00
2024-01-12T20:45:59.708Z,3.30
2024-01-12T20:48:26.997Z,3.20
2024-01-12T20:50:54.877Z,3.20
2024-01-12T20:53:22.457Z,3.00
2024-01-12T20:55:49.452Z,2.80
2024-01-12T20:58:16.865Z,3.10
2024-01-12T21:00:44.362Z,3.00
2024-01-12T21:03:11.595Z,3.30
2024-01-12T21:05:39.934Z,3.70
2024-01-12T21:08:07.121Z,3.40
2024-01-12T21:10:34.266Z,3.40
2024-01-12T21:13:02.324Z,3.50
2024-01-12T21:15:55.386Z,3.70
2024-01-12T21:18:22.559Z,3.80
2024-01-12T21:20:49.776Z,4.00
2024-01-12T21:23:16.761Z,4.00
2024-01-12T21:25:44.018Z,4.10
2024-01-12T21:28:10.964Z,4.10
2024-01-12T21:30:38.079Z,4.20
2024-01-12T21:33:06.339Z,4.00
2024-01-12T21:35:37.169Z,3.80
2024-01-12T21:38:04.435Z,3.90
2024-01-12T21:40:31.792Z,4.10
2024-01-12T21:42:58.932Z,4.20
2024-01-12T21:45:26.284Z,3.70
2024-01-12T21:47:53.505Z,3.90
2024-01-12T21:50:24.720Z,3.80
2024-01-12T21:52:51.721Z,3.90
2024-01-12T21:55:19.294Z,3.90
2024-01-12T21:57:46.815Z,3.80
2024-01-12T22:00:16.614Z,3.80
2024-01-12T22:02:43.722Z,3.40
2024-01-12T22:05:11.327Z,3.70
2024-01-12T22:07:38.425Z,3.50
2024-01-12T22:10:06.874Z,3.50
2024-01-12T22:12:34.163Z,3.50
2024-01-12T22:15:01.279Z,3.90
2024-01-12T22:17:28.534Z,3.90
2024-01-12T22:19:58.688Z,3.70
2024-01-12T22:22:25.855Z,3.80
2024-01-12T22:24:52.908Z,3.90
2024-01-12T22:27:21.169Z,4.00
2024-01-12T22:29:48.259Z,4.30
2024-01-12T22:32:15.276Z,4.20
2024-01-12T22:34:42.291Z,4.30
2024-01-12T22:37:09.269Z,4.10
2024-01-12T22:39:36.298Z,4.30
2024-01-12T22:42:03.313Z,3.60
2024-01-12T22:44:31.481Z,3.50
2024-01-12T22:46:58.746Z,3.40
2024-01-12T22:49:26.359Z,3.70
2024-01-12T22:51:53.620Z,3.70
2024-01-12T22:54:20.645Z,4.20
2024-01-12T22:56:47.694Z,4.10
2024-01-12T22:59:14.878Z,3.70
2024-01-12T23:01:42.005Z,3.80
2024-01-12T23:04:09.526Z,3.70
2024-01-12T23:06:36.543Z,3.60
2024-01-12T23:09:03.698Z,3.50
2024-01-12T23:11:32.348Z,3.50
2024-01-12T23:13:59.321Z,3.70
2024-01-12T23:16:26.267Z,3.90
2024-01-12T23:18:53.583Z,3.70
2024-01-12T23:21:20.676Z,3.40
2024-01-12T23:23:47.768Z,3.50
2024-01-12T23:26:14.851Z,3.70
2024-01-12T23:28:42.037Z,3.70
2024-01-12T23:31:09.120Z,4.00
2024-01-12T23:33:36.216Z,4.00
2024-01-12T23:36:05.069Z,3.80
2024-01-12T23:38:35.055Z,3.80
2024-01-12T23:41:02.863Z,3.90
2024-01-12T23:43:33.330Z,4.00
2024-01-12T23:46:00.444Z,4.00
2024-01-12T23:48:34.200Z,4.00
2024-01-12T23:51:06.003Z,4.30
2024-01-12T23:53:33.198Z,4.20
2024-01-12T23:56:00.246Z,4.20
2024-01-12T23:58:34.417Z,4.00
